Time;durP1;ratioP1;P1;durP2;ratioP2;P2;SDS_P1;SDS_P2;PMS_P1;PMS_P2;Temp;Humidity;BMP_temperature;BMP_pressure;BME280_temperature;BME280_humidity;BME280_pressure;Samples;Min_cycle;Max_cycle;Signal;HPM_P1;HPM_P2
2024/01/07 00:01:28;;;;;;;16.30;10.25;;;;;;;;;;5032216;28;20029;-86
2024/01/07 00:03:54;;;;;;;17.25;11.77;;;;;;;;;;5030644;28;20087;-87
2024/01/07 00:06:19;;;;;;;17.10;10.88;;;;;;;;;;5031110;28;20069;-84
2024/01/07 00:08:45;;;;;;;17.10;10.85;;;;;;;;;;5031256;28;20104;-86
2024/01/07 00:11:10;;;;;;;15.98;9.68;;;;;;;;;;5035040;28;20075;-87
2024/01/07 00:13:36;;;;;;;15.63;10.13;;;;;;;;;;5038923;28;20029;-87
2024/01/07 00:16:01;;;;;;;17.20;10.88;;;;;;;;;;5029581;28;20434;-89
2024/01/07 00:18:27;;;;;;;17.83;11.82;;;;;;;;;;5030160;28;20028;-81
2024/01/07 00:20:53;;;;;;;16.80;11.02;;;;;;;;;;5025843;28;20400;-80
2024/01/07 00:23:20;;;;;;;15.88;10.35;;;;;;;;;;5029141;28;20108;-80
2024/01/07 00:25:46;;;;;;;15.77;10.05;;;;;;;;;;5028298;28;20030;-79
2024/01/07 00:28:12;;;;;;;19.48;11.55;;;;;;;;;;5031482;28;20025;-79
2024/01/07 00:30:37;;;;;;;17.63;10.80;;;;;;;;;;5027401;28;20026;-79
2024/01/07 00:33:03;;;;;;;18.60;11.35;;;;;;;;;;5027677;28;20120;-79
2024/01/07 00:35:28;;;;;;;19.35;11.52;;;;;;;;;;5040709;28;20120;-79
2024/01/07 00:37:56;;;;;;;18.75;11.30;;;;;;;;;;5025144;28;20075;-79
2024/01/07 00:40:22;;;;;;;20.25;12.20;;;;;;;;;;5028699;28;20033;-79
2024/01/07 00:42:47;;;;;;;19.17;11.20;;;;;;;;;;5027090;28;20083;-79
2024/01/07 00:45:13;;;;;;;20.15;11.68;;;;;;;;;;5024560;28;20061;-80
2024/01/07 00:47:38;;;;;;;22.02;12.52;;;;;;;;;;5027947;28;20029;-80
2024/01/07 00:50:04;;;;;;;19.00;11.48;;;;;;;;;;5041300;28;20091;-80
2024/01/07 00:52:30;;;;;;;21.40;12.63;;;;;;;;;;5023931;28;20063;-79
2024/01/07 00:54:55;;;;;;;20.35;11.55;;;;;;;;;;5024440;28;20430;-79
2024/01/07 00:57:21;;;;;;;21.23;12.15;;;;;;;;;;5022604;28;20028;-80
2024/01/07 00:59:47;;;;;;;20.33;12.40;;;;;;;;;;5032586;28;20039;-80
2024/01/07 01:02:12;;;;;;;19.60;12.00;;;;;;;;;;4990685;28;1185318;-80
2024/01/07 01:04:39;;;;;;;20.70;11.57;;;;;;;;;;5043736;28;20060;-79
2024/01/07 01:07:05;;;;;;;19.25;11.90;;;;;;;;;;5032388;28;20025;-79
2024/01/07 01:09:30;;;;;;;20.17;12.20;;;;;;;;;;5034966;28;20056;-79
2024/01/07 01:11:56;;;;;;;19.83;11.80;;;;;;;;;;5044887;28;20025;-79
2024/01/07 01:14:21;;;;;;;20.33;12.60;;;;;;;;;;5033249;28;20052;-79
2024/01/07 01:16:47;;;;;;;22.58;12.88;;;;;;;;;;5013689;28;20490;-80
2024/01/07 01:19:12;;;;;;;18.77;12.18;;;;;;;;;;5028085;28;20538;-79
2024/01/07 01:21:39;;;;;;;21.02;12.45;;;;;;;;;;5035567;28;20029;-79
2024/01/07 01:24:04;;;;;;;20.20;11.93;;;;;;;;;;5023876;28;20104;-79
2024/01/07 01:26:30;;;;;;;20.08;11.57;;;;;;;;;;5032174;28;20542;-80
2024/01/07 01:28:55;;;;;;;20.52;11.75;;;;;;;;;;5031855;28;20033;-80
2024/01/07 01:31:22;;;;;;;21.90;11.57;;;;;;;;;;5031985;28;20025;-80
2024/01/07 01:33:47;;;;;;;22.60;12.10;;;;;;;;;;5027144;28;20026;-80
2024/01/07 01:36:12;;;;;;;21.80;11.25;;;;;;;;;;5026438;28;20048;-80
2024/01/07 01:38:38;;;;;;;18.88;11.20;;;;;;;;;;5031799;28;20075;-80
2024/01/07 01:41:03;;;;;;;20.77;12.05;;;;;;;;;;5025736;28;20033;-80
2024/01/07 01:43:29;;;;;;;20.63;12.15;;;;;;;;;;5027147;28;20038;-80
2024/01/07 01:45:55;;;;;;;21.77;12.18;;;;;;;;;;5034982;28;20029;-80
2024/01/07 01:48:24;;;;;;;20.60;12.20;;;;;;;;;;5029937;28;20034;-80
2024/01/07 01:50:50;;;;;;;20.58;12.13;;;;;;;;;;5032872;28;20079;-80
2024/01/07 01:53:15;;;;;;;23.02;13.02;;;;;;;;;;5030178;28;20400;-80
2024/01/07 01:55:42;;;;;;;25.25;13.63;;;;;;;;;;5031727;28;20434;-80
2024/01/07 01:58:09;;;;;;;24.88;13.45;;;;;;;;;;5023766;28;20064;-80
2024/01/07 02:00:35;;;;;;;23.58;13.20;;;;;;;;;;5029437;28;20040;-79
2024/01/07 02:03:00;;;;;;;24.45;13.80;;;;;;;;;;5029043;28;20041;-80
2024/01/07 02:05:27;;;;;;;24.52;13.82;;;;;;;;;;5038440;28;20041;-80
2024/01/07 02:07:53;;;;;;;27.38;14.80;;;;;;;;;;5030021;28;20025;-80
2024/01/07 02:10:18;;;;;;;27.13;15.18;;;;;;;;;;5038997;28;20022;-80
2024/01/07 02:12:45;;;;;;;26.48;13.48;;;;;;;;;;5030842;28;20029;-80
2024/01/07 02:15:10;;;;;;;26.13;14.73;;;;;;;;;;5031490;28;20490;-80
2024/01/07 02:17:36;;;;;;;27.20;14.15;;;;;;;;;;5034601;28;20116;-80
2024/01/07 02:20:01;;;;;;;26.83;14.60;;;;;;;;;;5030740;28;20072;-80
2024/01/07 02:22:26;;;;;;;27.30;15.85;;;;;;;;;;5046731;28;20366;-79
2024/01/07 02:24:52;;;;;;;27.33;14.80;;;;;;;;;;5032259;28;20060;-79
2024/01/07 02:27:17;;;;;;;28.45;13.95;;;;;;;;;;5027407;28;20179;-79
2024/01/07 02:29:43;;;;;;;29.08;14.90;;;;;;;;;;5046573;28;20396;-81
2024/01/07 02:32:08;;;;;;;28.48;14.95;;;;;;;;;;5034848;28;20057;-79
2024/01/07 02:34:34;;;;;;;25.05;14.27;;;;;;;;;;5033643;28;20026;-79
2024/01/07 02:36:59;;;;;;;28.55;15.35;;;;;;;;;;5034404;28;20072;-79
2024/01/07 02:39:24;;;;;;;25.02;15.07;;;;;;;;;;5030028;28;20033;-86
2024/01/07 02:41:50;;;;;;;23.10;13.60;;;;;;;;;;5038171;28;20033;-87
2024/01/07 02:44:16;;;;;;;22.55;13.35;;;;;;;;;;5029788;28;20022;-87
2024/01/07 02:46:42;;;;;;;25.25;13.98;;;;;;;;;;5030340;28;20039;-87
2024/01/07 02:49:08;;;;;;;24.17;13.45;;;;;;;;;;5035224;28;20029;-87
2024/01/07 02:51:33;;;;;;;23.65;14.10;;;;;;;;;;5032379;28;20025;-86
2024/01/07 02:53:58;;;;;;;22.73;13.07;;;;;;;;;;5033602;28;20025;-87
2024/01/07 02:56:24;;;;;;;26.98;14.57;;;;;;;;;;5027078;28;20100;-87
2024/01/07 02:58:49;;;;;;;26.65;15.23;;;;;;;;;;5029358;28;20029;-86
2024/01/07 03:01:15;;;;;;;24.80;14.85;;;;;;;;;;5023847;28;20029;-86
2024/01/07 03:03:40;;;;;;;25.08;13.90;;;;;;;;;;5029161;28;20164;-85
2024/01/07 03:06:05;;;;;;;24.45;13.60;;;;;;;;;;5032943;28;20037;-88
2024/01/07 03:08:33;;;;;;;23.27;13.18;;;;;;;;;;5036465;28;20045;-85
2024/01/07 03:10:58;;;;;;;22.85;13.80;;;;;;;;;;5023844;28;20422;-87
2024/01/07 03:13:23;;;;;;;21.00;13.05;;;;;;;;;;5036347;28;20140;-86
2024/01/07 03:15:49;;;;;;;22.77;13.50;;;;;;;;;;5030170;28;20399;-85
2024/01/07 03:18:14;;;;;;;22.15;13.45;;;;;;;;;;5034720;28;20120;-86
2024/01/07 03:20:40;;;;;;;24.67;14.27;;;;;;;;;;5027566;28;20060;-87
2024/01/07 03:23:06;;;;;;;24.25;13.57;;;;;;;;;;5028253;28;20105;-86
2024/01/07 03:25:31;;;;;;;25.30;14.48;;;;;;;;;;5027351;28;20113;-87
2024/01/07 03:27:56;;;;;;;24.75;13.75;;;;;;;;;;5040737;28;20059;-86
2024/01/07 03:30:22;;;;;;;24.92;14.32;;;;;;;;;;5035178;28;20398;-86
2024/01/07 03:32:47;;;;;;;24.30;12.93;;;;;;;;;;5031240;28;20533;-87
2024/01/07 03:35:14;;;;;;;23.95;13.95;;;;;;;;;;5042188;28;20030;-86
2024/01/07 03:37:40;;;;;;;24.88;13.32;;;;;;;;;;5041457;28;20112;-87
2024/01/07 03:40:10;;;;;;;22.00;11.93;;;;;;;;;;5027447;28;20096;-86
2024/01/07 03:42:36;;;;;;;25.05;12.70;;;;;;;;;;5035005;28;20025;-87
2024/01/07 03:45:01;;;;;;;23.13;13.05;;;;;;;;;;5023677;28;20119;-86
2024/01/07 03:47:27;;;;;;;23.27;13.18;;;;;;;;;;5029017;28;21736;-86
2024/01/07 03:49:52;;;;;;;26.50;13.45;;;;;;;;;;5029119;28;20033;-80
2024/01/07 03:52:18;;;;;;;22.98;13.35;;;;;;;;;;5027938;28;20039;-80
2024/01/07 03:54:43;;;;;;;23.83;12.35;;;;;;;;;;5028685;28;20045;-80
2024/01/07 03:57:08;;;;;;;25.30;13.70;;;;;;;;;;5029621;28;20022;-80
2024/01/07 03:59:34;;;;;;;24.50;13.18;;;;;;;;;;5050639;28;20113;-79
2024/01/07 04:01:59;;;;;;;24.98;12.98;;;;;;;;;;5028277;28;20065;-79
2024/01/07 04:04:25;;;;;;;26.75;13.05;;;;;;;;;;5030997;28;20049;-80
2024/01/07 04:06:50;;;;;;;26.33;13.75;;;;;;;;;;5028307;28;20506;-80
2024/01/07 04:09:16;;;;;;;23.92;12.73;;;;;;;;;;5029333;28;20467;-79
2024/01/07 04:11:42;;;;;;;25.55;13.10;;;;;;;;;;5033063;28;20489;-81
2024/01/07 04:14:09;;;;;;;26.67;14.07;;;;;;;;;;5040731;28;20025;-79
2024/01/07 04:16:35;;;;;;;23.17;13.43;;;;;;;;;;5026331;28;20120;-79
2024/01/07 04:19:00;;;;;;;26.80;13.98;;;;;;;;;;5026023;28;20132;-80
2024/01/07 04:21:26;;;;;;;24.08;13.50;;;;;;;;;;5029498;28;20502;-80
2024/01/07 04:23:53;;;;;;;20.65;12.13;;;;;;;;;;5025531;28;20086;-80
2024/01/07 04:26:18;;;;;;;23.75;12.13;;;;;;;;;;5041492;28;20535;-80
2024/01/07 04:28:44;;;;;;;20.25;12.55;;;;;;;;;;5027281;28;20040;-80
2024/01/07 04:31:09;;;;;;;20.70;12.77;;;;;;;;;;5024390;28;20476;-80
2024/01/07 04:33:35;;;;;;;18.42;11.35;;;;;;;;;;5027985;28;20155;-80
2024/01/07 04:36:00;;;;;;;17.80;11.02;;;;;;;;;;5028407;28;20033;-80
2024/01/07 04:38:27;;;;;;;18.05;10.95;;;;;;;;;;5022693;28;20464;-80
2024/01/07 04:40:52;;;;;;;16.20;10.15;;;;;;;;;;5024957;28;20078;-80
2024/01/07 04:43:20;;;;;;;17.08;10.63;;;;;;;;;;5024648;28;20112;-80
2024/01/07 04:45:46;;;;;;;18.27;10.70;;;;;;;;;;5031947;28;20479;-80
2024/01/07 04:48:13;;;;;;;16.63;10.35;;;;;;;;;;5022214;28;20029;-80
2024/01/07 04:50:41;;;;;;;16.83;10.20;;;;;;;;;;5040660;28;21089;-80
2024/01/07 04:53:07;;;;;;;16.92;10.55;;;;;;;;;;5027135;28;20419;-79
2024/01/07 04:55:33;;;;;;;16.30;10.20;;;;;;;;;;5029680;28;20028;-80
2024/01/07 04:57:58;;;;;;;17.10;10.20;;;;;;;;;;5028130;28;20398;-80
2024/01/07 05:00:24;;;;;;;15.02;9.57;;;;;;;;;;5026497;28;20075;-89
2024/01/07 05:02:49;;;;;;;15.13;9.75;;;;;;;;;;5043141;28;20037;-88
2024/01/07 05:05:14;;;;;;;16.52;10.00;;;;;;;;;;5032887;28;20033;-88
2024/01/07 05:07:40;;;;;;;13.95;9.20;;;;;;;;;;5028182;28;20042;-88
2024/01/07 05:10:06;;;;;;;14.02;9.27;;;;;;;;;;5027700;28;20439;-88
2024/01/07 05:12:31;;;;;;;15.02;9.88;;;;;;;;;;5029347;28;20112;-87
2024/01/07 05:14:57;;;;;;;16.33;9.75;;;;;;;;;;5026612;28;20124;-88
2024/01/07 05:17:22;;;;;;;16.13;10.50;;;;;;;;;;5026407;28;20037;-89
2024/01/07 05:19:48;;;;;;;16.55;10.00;;;;;;;;;;5024589;28;20033;-87
2024/01/07 05:22:13;;;;;;;16.27;10.43;;;;;;;;;;5029866;28;20029;-88
2024/01/07 05:24:39;;;;;;;16.73;10.52;;;;;;;;;;5027500;28;20029;-88
2024/01/07 05:27:05;;;;;;;15.38;10.32;;;;;;;;;;5029796;28;20036;-87
2024/01/07 05:29:33;;;;;;;16.55;9.90;;;;;;;;;;5026619;28;20029;-88
2024/01/07 05:32:00;;;;;;;15.00;10.25;;;;;;;;;;5026699;28;20075;-88
2024/01/07 05:34:26;;;;;;;20.77;11.95;;;;;;;;;;5028155;28;20033;-87
2024/01/07 05:36:51;;;;;;;18.45;11.00;;;;;;;;;;5031242;28;20029;-87
2024/01/07 05:39:18;;;;;;;19.50;11.75;;;;;;;;;;5026245;28;20025;-89
2024/01/07 05:41:43;;;;;;;16.73;11.27;;;;;;;;;;5025411;28;20032;-87
2024/01/07 05:44:09;;;;;;;19.40;12.30;;;;;;;;;;5029471;28;20030;-88
2024/01/07 05:46:39;;;;;;;18.45;12.00;;;;;;;;;;5031631;28;20087;-87
2024/01/07 05:49:05;;;;;;;20.23;11.80;;;;;;;;;;5026477;28;20059;-87
2024/01/07 05:51:32;;;;;;;18.35;11.85;;;;;;;;;;5032816;28;20061;-87
2024/01/07 05:53:57;;;;;;;18.38;11.25;;;;;;;;;;5048396;28;20021;-87
2024/01/07 05:56:23;;;;;;;18.08;11.70;;;;;;;;;;5029624;28;20071;-87
2024/01/07 05:58:48;;;;;;;18.45;11.80;;;;;;;;;;5044272;28;20407;-88
2024/01/07 06:01:19;;;;;;;20.08;12.07;;;;;;;;;;5032409;28;20021;-87
2024/01/07 06:03:47;;;;;;;21.67;11.98;;;;;;;;;;5030472;28;20022;-88
2024/01/07 06:06:14;;;;;;;18.48;11.82;;;;;;;;;;5030671;28;20028;-88
2024/01/07 06:08:39;;;;;;;19.90;11.43;;;;;;;;;;5030686;28;21097;-88
2024/01/07 06:11:05;;;;;;;17.65;11.13;;;;;;;;;;5030544;28;20666;-89
2024/01/07 06:13:30;;;;;;;17.90;11.85;;;;;;;;;;5033134;28;20030;-88
2024/01/07 06:15:55;;;;;;;17.45;11.57;;;;;;;;;;5025165;28;20365;-87
2024/01/07 06:18:21;;;;;;;18.65;11.80;;;;;;;;;;5027489;28;20404;-86
2024/01/07 06:20:46;;;;;;;18.38;11.05;;;;;;;;;;5026506;28;20033;-86
2024/01/07 06:23:12;;;;;;;15.82;11.05;;;;;;;;;;5031862;28;20078;-86
2024/01/07 06:25:39;;;;;;;16.27;10.85;;;;;;;;;;5027913;28;20026;-88
2024/01/07 06:28:04;;;;;;;18.00;11.65;;;;;;;;;;5028742;28;20191;-86
2024/01/07 06:30:30;;;;;;;16.35;10.93;;;;;;;;;;5030923;28;20137;-87
2024/01/07 06:32:55;;;;;;;16.42;11.15;;;;;;;;;;5024825;28;20037;-86
2024/01/07 06:35:21;;;;;;;17.15;11.45;;;;;;;;;;5033684;28;20036;-87
2024/01/07 06:37:47;;;;;;;16.90;10.77;;;;;;;;;;5030816;28;20025;-86
2024/01/07 06:40:12;;;;;;;16.13;11.13;;;;;;;;;;5029757;28;20057;-87
2024/01/07 06:42:38;;;;;;;17.35;11.07;;;;;;;;;;5027887;28;20396;-87
2024/01/07 06:45:04;;;;;;;17.27;11.35;;;;;;;;;;5028687;28;20467;-86
2024/01/07 06:47:30;;;;;;;18.02;10.55;;;;;;;;;;5008174;28;20032;-87
2024/01/07 06:49:55;;;;;;;15.02;10.38;;;;;;;;;;5031884;28;20104;-86
2024/01/07 06:52:21;;;;;;;15.88;10.57;;;;;;;;;;5029422;28;20364;-87
2024/01/07 06:54:46;;;;;;;17.25;11.15;;;;;;;;;;5030531;28;20069;-87
2024/01/07 06:57:12;;;;;;;15.60;10.55;;;;;;;;;;5027946;28;20064;-87
2024/01/07 06:59:37;;;;;;;16.17;10.60;;;;;;;;;;5026970;28;20033;-87
2024/01/07 07:02:03;;;;;;;17.73;11.77;;;;;;;;;;5028332;28;20105;-88
2024/01/07 07:04:29;;;;;;;16.65;11.07;;;;;;;;;;5029273;28;20399;-87
2024/01/07 07:06:57;;;;;;;19.17;11.15;;;;;;;;;;5031177;28;20033;-88
2024/01/07 07:09:22;;;;;;;17.23;11.38;;;;;;;;;;5028507;28;20109;-87
2024/01/07 07:11:48;;;;;;;16.88;10.95;;;;;;;;;;5030166;28;20112;-87
2024/01/07 07:14:13;;;;;;;18.27;10.82;;;;;;;;;;5024149;28;20497;-88
2024/01/07 07:16:39;;;;;;;15.98;10.82;;;;;;;;;;5022966;28;20538;-87
2024/01/07 07:19:04;;;;;;;16.48;10.85;;;;;;;;;;5026005;28;20476;-80
2024/01/07 07:21:29;;;;;;;14.95;10.45;;;;;;;;;;5036533;28;20029;-80
2024/01/07 07:23:55;;;;;;;15.80;10.13;;;;;;;;;;5027722;28;20029;-80
2024/01/07 07:26:20;;;;;;;15.23;10.30;;;;;;;;;;5032833;28;20368;-80
2024/01/07 07:28:47;;;;;;;17.67;11.57;;;;;;;;;;5029049;28;20055;-80
2024/01/07 07:31:13;;;;;;;16.38;10.13;;;;;;;;;;5033066;28;20032;-80
2024/01/07 07:33:40;;;;;;;15.48;10.38;;;;;;;;;;5027126;28;20041;-80
2024/01/07 07:36:08;;;;;;;16.38;10.90;;;;;;;;;;5029787;28;20037;-80
2024/01/07 07:38:33;;;;;;;15.50;10.15;;;;;;;;;;5025802;28;20502;-80
2024/01/07 07:41:00;;;;;;;16.08;10.43;;;;;;;;;;5029728;28;20033;-80
2024/01/07 07:43:26;;;;;;;15.50;9.90;;;;;;;;;;5046229;28;20044;-80
2024/01/07 07:45:51;;;;;;;14.15;9.60;;;;;;;;;;5029495;28;20041;-80
2024/01/07 07:48:18;;;;;;;15.07;10.43;;;;;;;;;;5028034;28;20543;-80
2024/01/07 07:50:44;;;;;;;13.77;9.35;;;;;;;;;;5026205;28;20108;-80
2024/01/07 07:53:12;;;;;;;18.90;10.35;;;;;;;;;;5023553;28;20128;-80
2024/01/07 07:55:38;;;;;;;17.15;10.07;;;;;;;;;;5027589;28;20025;-80
2024/01/07 07:58:04;;;;;;;14.98;9.55;;;;;;;;;;5022951;28;20078;-80
2024/01/07 08:00:29;;;;;;;14.45;9.93;;;;;;;;;;5027492;28;20025;-80
2024/01/07 08:02:54;;;;;;;15.07;9.73;;;;;;;;;;5023109;28;20029;-80
2024/01/07 08:05:20;;;;;;;15.93;10.05;;;;;;;;;;5029434;28;20037;-80
2024/01/07 08:07:46;;;;;;;14.68;9.30;;;;;;;;;;5025287;28;20036;-80
2024/01/07 08:10:11;;;;;;;14.20;9.55;;;;;;;;;;5021830;28;20021;-80
2024/01/07 08:12:37;;;;;;;15.45;10.65;;;;;;;;;;5029794;28;20029;-81
2024/01/07 08:15:05;;;;;;;13.80;9.80;;;;;;;;;;5022763;28;20484;-80
2024/01/07 08:17:30;;;;;;;16.27;10.25;;;;;;;;;;5026801;28;20510;-80
2024/01/07 08:19:56;;;;;;;16.85;10.07;;;;;;;;;;5030361;28;20033;-81
2024/01/07 08:22:22;;;;;;;16.98;10.68;;;;;;;;;;5033872;28;20476;-80
2024/01/07 08:24:47;;;;;;;14.75;10.25;;;;;;;;;;5028436;28;20053;-81
2024/01/07 08:27:14;;;;;;;14.70;9.50;;;;;;;;;;5034947;28;20368;-81
2024/01/07 08:29:42;;;;;;;14.45;9.52;;;;;;;;;;5031219;28;20025;-81
2024/01/07 08:32:08;;;;;;;15.05;9.85;;;;;;;;;;5027120;28;20021;-80
2024/01/07 08:34:34;;;;;;;14.85;10.70;;;;;;;;;;5025953;28;20483;-80
2024/01/07 08:37:00;;;;;;;15.75;10.13;;;;;;;;;;5025286;28;20030;-80
2024/01/07 08:39:27;;;;;;;14.88;10.13;;;;;;;;;;5023528;28;20446;-81
2024/01/07 08:41:53;;;;;;;13.60;9.45;;;;;;;;;;5026896;28;20092;-81
2024/01/07 08:44:19;;;;;;;16.40;10.48;;;;;;;;;;5023566;28;20029;-80
2024/01/07 08:46:45;;;;;;;14.68;9.55;;;;;;;;;;5025508;28;20099;-80
2024/01/07 08:49:11;;;;;;;14.93;10.18;;;;;;;;;;5024113;28;20029;-80
2024/01/07 08:51:37;;;;;;;15.02;9.68;;;;;;;;;;5022485;28;20048;-80
2024/01/07 08:54:03;;;;;;;14.63;10.15;;;;;;;;;;5023280;28;20491;-80
2024/01/07 08:56:28;;;;;;;12.85;9.05;;;;;;;;;;5028606;28;20056;-80
2024/01/07 08:58:54;;;;;;;13.32;9.05;;;;;;;;;;5023361;28;20039;-80
2024/01/07 09:01:19;;;;;;;15.68;9.50;;;;;;;;;;5021509;28;20383;-81
2024/01/07 09:03:45;;;;;;;14.13;9.30;;;;;;;;;;5023886;28;20029;-80
2024/01/07 09:06:10;;;;;;;13.52;9.07;;;;;;;;;;5025346;28;20029;-81
2024/01/07 09:08:36;;;;;;;16.38;8.90;;;;;;;;;;5027582;28;20029;-80
2024/01/07 09:11:04;;;;;;;14.07;9.43;;;;;;;;;;5026785;28;20442;-80
2024/01/07 09:13:30;;;;;;;13.75;8.77;;;;;;;;;;5023986;28;20044;-81
2024/01/07 09:15:56;;;;;;;12.30;8.65;;;;;;;;;;5024583;28;20029;-80
2024/01/07 09:18:21;;;;;;;12.93;9.00;;;;;;;;;;5023687;28;20025;-80
2024/01/07 09:20:47;;;;;;;10.93;8.05;;;;;;;;;;5028798;28;20033;-81
2024/01/07 09:23:12;;;;;;;10.98;8.00;;;;;;;;;;5014926;28;20475;-80
2024/01/07 09:25:39;;;;;;;12.73;8.32;;;;;;;;;;5031329;28;20040;-81
2024/01/07 09:28:05;;;;;;;11.30;8.13;;;;;;;;;;5034158;28;20029;-80
2024/01/07 09:30:30;;;;;;;13.07;8.23;;;;;;;;;;5027073;28;20147;-81
2024/01/07 09:32:56;;;;;;;10.77;7.82;;;;;;;;;;5032182;28;20029;-80
2024/01/07 09:35:21;;;;;;;11.60;7.72;;;;;;;;;;5033664;28;20116;-81
2024/01/07 09:37:47;;;;;;;11.30;8.02;;;;;;;;;;5028867;28;20022;-81
2024/01/07 09:40:19;;;;;;;12.27;8.18;;;;;;;;;;5036287;28;20517;-87
2024/01/07 09:42:44;;;;;;;13.30;7.87;;;;;;;;;;5031611;28;20405;-87
2024/01/07 09:45:12;;;;;;;10.90;7.80;;;;;;;;;;5042397;28;20033;-88
2024/01/07 09:47:40;;;;;;;10.52;7.00;;;;;;;;;;5033448;28;20051;-87
2024/01/07 09:50:06;;;;;;;11.05;7.70;;;;;;;;;;5043940;28;20057;-87
2024/01/07 09:52:32;;;;;;;11.80;7.88;;;;;;;;;;5044780;28;20044;-87
2024/01/07 09:55:02;;;;;;;11.23;7.93;;;;;;;;;;5032106;28;20124;-87
2024/01/07 09:57:28;;;;;;;11.07;8.05;;;;;;;;;;5031216;28;20048;-87
2024/01/07 09:59:53;;;;;;;13.10;8.60;;;;;;;;;;5030414;28;20118;-87
2024/01/07 10:02:20;;;;;;;11.57;8.15;;;;;;;;;;5043025;28;20102;-88
2024/01/07 10:04:48;;;;;;;12.05;7.97;;;;;;;;;;5029929;28;20033;-87
2024/01/07 10:07:14;;;;;;;13.65;9.13;;;;;;;;;;5024474;28;20061;-85
2024/01/07 10:09:42;;;;;;;10.55;7.95;;;;;;;;;;5026529;28;20455;-86
2024/01/07 10:12:08;;;;;;;13.20;8.77;;;;;;;;;;5026489;28;20486;-86
2024/01/07 10:14:33;;;;;;;11.48;7.85;;;;;;;;;;5041271;28;20495;-86
2024/01/07 10:17:00;;;;;;;12.50;7.95;;;;;;;;;;5021665;28;20036;-86
2024/01/07 10:19:25;;;;;;;12.07;7.68;;;;;;;;;;5025085;28;20032;-87
2024/01/07 10:22:04;;;;;;;10.65;7.65;;;;;;;;;;5024949;28;20475;-87
2024/01/07 10:24:38;;;;;;;12.52;7.47;;;;;;;;;;5026055;28;20495;-87
2024/01/07 10:27:04;;;;;;;11.55;7.88;;;;;;;;;;5031205;28;20041;-87
2024/01/07 10:29:30;;;;;;;14.05;8.05;;;;;;;;;;5026432;28;20506;-86
2024/01/07 10:31:57;;;;;;;11.90;7.80;;;;;;;;;;5029212;28;20022;-86
2024/01/07 10:34:24;;;;;;;10.43;7.22;;;;;;;;;;5031107;28;20026;-87
2024/01/07 10:36:52;;;;;;;12.68;7.57;;;;;;;;;;5033169;28;20025;-86
2024/01/07 10:39:19;;;;;;;12.60;7.95;;;;;;;;;;5035362;28;20483;-86
2024/01/07 10:41:46;;;;;;;11.75;7.45;;;;;;;;;;5031195;28;20110;-88
2024/01/07 10:44:12;;;;;;;12.85;7.95;;;;;;;;;;5028254;28;20025;-88
2024/01/07 10:46:39;;;;;;;11.00;7.28;;;;;;;;;;5037186;28;20059;-87
2024/01/07 10:49:12;;;;;;;12.45;7.55;;;;;;;;;;5032307;28;20028;-81
2024/01/07 10:51:39;;;;;;;14.07;7.90;;;;;;;;;;5033064;28;20026;-81
2024/01/07 10:54:07;;;;;;;13.20;7.72;;;;;;;;;;5029548;28;20045;-81
2024/01/07 10:56:45;;;;;;;11.05;7.07;;;;;;;;;;5033299;28;20017;-81
2024/01/07 10:59:11;;;;;;;11.07;7.05;;;;;;;;;;5029537;28;20131;-81
2024/01/07 11:01:37;;;;;;;12.27;7.32;;;;;;;;;;5026891;28;20551;-81
2024/01/07 11:04:26;;;;;;;13.07;7.28;;;;;;;;;;5027747;28;20048;-80
2024/01/07 11:07:08;;;;;;;13.23;7.13;;;;;;;;;;5030136;28;20025;-79
2024/01/07 11:10:01;;;;;;;9.45;7.03;;;;;;;;;;5029498;28;20492;-78
2024/01/07 11:12:27;;;;;;;10.63;6.72;;;;;;;;;;5032616;28;20022;-79
2024/01/07 11:14:52;;;;;;;9.30;5.85;;;;;;;;;;5029580;28;20037;-80
2024/01/07 11:17:37;;;;;;;9.23;6.40;;;;;;;;;;5031456;28;20025;-79
2024/01/07 11:20:08;;;;;;;10.07;6.68;;;;;;;;;;5030806;28;20092;-79
2024/01/07 11:22:33;;;;;;;10.23;6.82;;;;;;;;;;5030915;28;20028;-80
2024/01/07 11:25:02;;;;;;;9.60;6.43;;;;;;;;;;5030198;28;20075;-79
2024/01/07 11:27:32;;;;;;;10.43;6.00;;;;;;;;;;5032522;28;20040;-79
2024/01/07 11:30:17;;;;;;;9.00;5.78;;;;;;;;;;5031763;28;20071;-79
2024/01/07 11:32:46;;;;;;;8.32;5.55;;;;;;;;;;5042663;28;20471;-80
2024/01/07 11:35:12;;;;;;;9.45;5.72;;;;;;;;;;5030001;28;20458;-80
2024/01/07 11:37:38;;;;;;;9.57;6.00;;;;;;;;;;5030110;28;20113;-79
2024/01/07 11:40:06;;;;;;;9.13;5.25;;;;;;;;;;5031369;28;20444;-78
2024/01/07 11:42:33;;;;;;;8.13;5.40;;;;;;;;;;5027565;28;20021;-80
2024/01/07 11:44:58;;;;;;;9.05;6.00;;;;;;;;;;5030040;28;20026;-80
2024/01/07 11:47:27;;;;;;;8.30;5.43;;;;;;;;;;5027820;28;20056;-80
2024/01/07 11:49:53;;;;;;;7.38;5.18;;;;;;;;;;5028015;28;20080;-80
2024/01/07 11:52:20;;;;;;;8.60;5.85;;;;;;;;;;5021952;28;20026;-80
2024/01/07 11:54:47;;;;;;;10.10;5.68;;;;;;;;;;5007158;28;20064;-80
2024/01/07 11:57:13;;;;;;;8.55;5.43;;;;;;;;;;5028768;28;20052;-80
2024/01/07 11:59:39;;;;;;;9.00;6.05;;;;;;;;;;5024111;28;20483;-80
2024/01/07 12:02:07;;;;;;;9.98;6.22;;;;;;;;;;5025224;28;20462;-80
2024/01/07 12:04:33;;;;;;;7.70;5.68;;;;;;;;;;5026717;28;20029;-80
2024/01/07 12:06:59;;;;;;;10.48;6.45;;;;;;;;;;5026245;28;20049;-80
2024/01/07 12:09:29;;;;;;;9.38;6.55;;;;;;;;;;5018842;28;20037;-80
2024/01/07 12:11:55;;;;;;;8.15;5.68;;;;;;;;;;5028423;28;20018;-80
2024/01/07 12:14:22;;;;;;;8.02;5.50;;;;;;;;;;5027466;28;20026;-79
2024/01/07 12:16:49;;;;;;;8.07;5.38;;;;;;;;;;5027597;28;20021;-80
2024/01/07 12:19:15;;;;;;;7.50;5.07;;;;;;;;;;5026525;28;20029;-80
2024/01/07 12:21:40;;;;;;;7.78;4.88;;;;;;;;;;5036064;28;20492;-80
2024/01/07 12:24:06;;;;;;;7.95;4.45;;;;;;;;;;5027879;28;20033;-80
2024/01/07 12:26:33;;;;;;;7.07;4.63;;;;;;;;;;5028668;28;20044;-80
2024/01/07 12:29:03;;;;;;;7.05;4.30;;;;;;;;;;5027366;28;20025;-80
2024/01/07 12:31:32;;;;;;;6.22;3.90;;;;;;;;;;5028308;28;20021;-80
2024/01/07 12:33:58;;;;;;;8.85;4.35;;;;;;;;;;5038190;28;20033;-80
2024/01/07 12:36:24;;;;;;;6.95;3.75;;;;;;;;;;5011901;28;20044;-80
2024/01/07 12:38:51;;;;;;;7.35;3.60;;;;;;;;;;5036756;28;20032;-80
2024/01/07 12:41:18;;;;;;;5.53;3.20;;;;;;;;;;5025655;28;20075;-80
2024/01/07 12:43:43;;;;;;;6.22;2.75;;;;;;;;;;5027136;28;20025;-80
2024/01/07 12:46:08;;;;;;;4.20;2.75;;;;;;;;;;5023595;28;20041;-81
2024/01/07 12:48:34;;;;;;;5.70;3.08;;;;;;;;;;5022045;28;20048;-81
2024/01/07 12:51:01;;;;;;;4.68;2.80;;;;;;;;;;5024368;28;20037;-80
2024/01/07 12:53:26;;;;;;;5.28;2.60;;;;;;;;;;5024205;28;20084;-80
2024/01/07 12:55:53;;;;;;;4.60;2.50;;;;;;;;;;5029018;28;20265;-80
2024/01/07 12:58:18;;;;;;;4.57;2.55;;;;;;;;;;5031333;28;20044;-80
2024/01/07 13:00:44;;;;;;;4.97;2.80;;;;;;;;;;5028575;28;20022;-81
2024/01/07 13:03:17;;;;;;;4.75;2.67;;;;;;;;;;5031683;28;20038;-80
2024/01/07 13:05:43;;;;;;;5.20;2.88;;;;;;;;;;5025021;28;20538;-80
2024/01/07 13:08:08;;;;;;;4.47;2.40;;;;;;;;;;5025029;28;20104;-80
2024/01/07 13:10:35;;;;;;;4.43;2.47;;;;;;;;;;5026110;28;20459;-78
2024/01/07 13:13:03;;;;;;;4.78;2.40;;;;;;;;;;5028296;28;20033;-83
2024/01/07 13:15:31;;;;;;;4.00;2.35;;;;;;;;;;5031541;28;20017;-83
2024/01/07 13:18:01;;;;;;;4.40;2.53;;;;;;;;;;5021704;28;20566;-79
2024/01/07 13:20:26;;;;;;;5.35;2.40;;;;;;;;;;5025002;28;20029;-83
2024/01/07 13:22:52;;;;;;;4.50;2.28;;;;;;;;;;5026094;28;20134;-85
2024/01/07 13:25:17;;;;;;;4.32;2.22;;;;;;;;;;5024519;28;20048;-85
2024/01/07 13:27:43;;;;;;;4.82;2.35;;;;;;;;;;5021090;28;20036;-83
2024/01/07 13:30:09;;;;;;;3.75;2.15;;;;;;;;;;5023473;28;20103;-84
2024/01/07 13:32:36;;;;;;;3.42;2.03;;;;;;;;;;5022342;28;20053;-84
2024/01/07 13:35:04;;;;;;;3.08;1.75;;;;;;;;;;5022510;28;20645;-84
2024/01/07 13:37:30;;;;;;;4.90;2.75;;;;;;;;;;5017741;28;20105;-84
2024/01/07 13:39:57;;;;;;;4.90;2.03;;;;;;;;;;5018861;28;20036;-85
2024/01/07 13:42:26;;;;;;;3.90;2.10;;;;;;;;;;5021147;28;20030;-84
2024/01/07 13:44:52;;;;;;;3.80;2.20;;;;;;;;;;5022111;28;20083;-84
2024/01/07 13:47:17;;;;;;;6.97;2.22;;;;;;;;;;5021589;28;20337;-84
2024/01/07 13:49:47;;;;;;;3.97;2.00;;;;;;;;;;5016897;28;20447;-84
2024/01/07 13:52:12;;;;;;;3.20;2.13;;;;;;;;;;5028760;28;20025;-84
2024/01/07 13:54:38;;;;;;;3.85;2.05;;;;;;;;;;5024252;28;20034;-84
2024/01/07 13:57:04;;;;;;;4.30;1.95;;;;;;;;;;5022252;28;20151;-83
2024/01/07 13:59:30;;;;;;;5.45;2.20;;;;;;;;;;5019532;28;20048;-84
2024/01/07 14:01:59;;;;;;;3.72;2.10;;;;;;;;;;5020778;28;20033;-85
2024/01/07 14:04:25;;;;;;;4.82;2.45;;;;;;;;;;5021980;28;20088;-84
2024/01/07 14:06:57;;;;;;;4.10;2.00;;;;;;;;;;5021377;28;20474;-84
2024/01/07 14:09:23;;;;;;;3.50;1.95;;;;;;;;;;5016406;28;20115;-85
2024/01/07 14:11:48;;;;;;;3.58;1.98;;;;;;;;;;5026548;28;20076;-84
2024/01/07 14:14:14;;;;;;;3.97;2.30;;;;;;;;;;5020830;28;20489;-84
2024/01/07 14:16:40;;;;;;;3.40;2.00;;;;;;;;;;5020149;28;20017;-85
2024/01/07 14:19:06;;;;;;;5.18;2.40;;;;;;;;;;5021336;28;20036;-82
2024/01/07 14:21:31;;;;;;;3.88;2.30;;;;;;;;;;5026761;28;21264;-82